createdAt,value
2023-01-25T00:00:10.933Z,0
2023-01-25T00:01:11.310Z,0
2023-01-25T00:02:11.853Z,0
2023-01-25T00:03:12.635Z,0
2023-01-25T00:04:12.405Z,0
2023-01-25T00:05:13.936Z,0
2023-01-25T00:06:14.139Z,0
2023-01-25T00:07:15.395Z,0
2023-01-25T00:08:15.016Z,0
2023-01-25T00:09:15.681Z,0
2023-01-25T00:10:16.611Z,0
2023-01-25T00:11:16.655Z,0
2023-01-25T00:12:17.862Z,0
2023-01-25T00:13:18.114Z,0
2023-01-25T00:14:19.053Z,0
2023-01-25T00:15:20.475Z,0
2023-01-25T00:16:20.381Z,0
2023-01-25T00:17:20.406Z,0
2023-01-25T00:18:20.761Z,0
2023-01-25T00:19:21.432Z,0
2023-01-25T00:20:22.354Z,0
2023-01-25T00:21:23.459Z,0
2023-01-25T00:22:23.772Z,0
2023-01-25T00:23:24.107Z,0
2023-01-25T00:24:25.422Z,0
2023-01-25T00:25:25.966Z,0
2023-01-25T00:26:26.453Z,0
2023-01-25T00:27:26.399Z,0
2023-01-25T00:28:27.918Z,0
2023-01-25T00:29:28.141Z,0
2023-01-25T00:30:28.761Z,0
2023-01-25T00:31:29.538Z,0
2023-01-25T00:32:30.515Z,0
2023-01-25T00:33:30.779Z,0
2023-01-25T00:34:31.704Z,0
2023-01-25T00:35:32.218Z,0
2023-01-25T00:36:32.434Z,0
2023-01-25T00:37:32.435Z,0
2023-01-25T00:38:32.636Z,0
2023-01-25T00:39:33.580Z,0
2023-01-25T00:40:34.249Z,0
2023-01-25T00:41:35.265Z,0
2023-01-25T00:42:36.676Z,0
2023-01-25T00:43:37.162Z,0
2023-01-25T00:44:37.071Z,0
2023-01-25T00:45:38.034Z,0
2023-01-25T00:46:38.697Z,0
2023-01-25T00:47:39.232Z,0
2023-01-25T00:48:39.433Z,0
2023-01-25T00:49:39.941Z,0
2023-01-25T00:50:39.856Z,0
2023-01-25T00:51:41.199Z,0
2023-01-25T00:52:42.002Z,0
2023-01-25T00:53:41.659Z,0
2023-01-25T00:54:42.592Z,0
2023-01-25T00:55:42.544Z,0
2023-01-25T00:56:43.447Z,0
2023-01-25T00:57:43.649Z,0
2023-01-25T00:58:43.564Z,0
2023-01-25T00:59:44.732Z,0
2023-01-25T01:00:45.145Z,0
2023-01-25T01:01:46.261Z,0
2023-01-25T01:02:46.693Z,0
2023-01-25T01:03:46.634Z,0
2023-01-25T01:04:48.563Z,0
2023-01-25T01:05:48.938Z,0
2023-01-25T01:06:49.039Z,0
2023-01-25T01:07:50.538Z,0
2023-01-25T01:08:51.134Z,0
2023-01-25T01:09:51.651Z,0
2023-01-25T01:10:51.891Z,0
2023-01-25T01:11:51.807Z,0
2023-01-25T01:12:53.011Z,0
2023-01-25T01:13:52.933Z,0
2023-01-25T01:14:53.832Z,0
2023-01-25T01:15:53.784Z,0
2023-01-25T01:16:57.116Z,0
2023-01-25T01:17:54.951Z,0
2023-01-25T01:18:55.275Z,0
2023-01-25T01:19:55.180Z,0
2023-01-25T01:20:56.129Z,0
2023-01-25T01:21:57.465Z,0
2023-01-25T01:22:57.664Z,0
2023-01-25T01:23:57.685Z,0
2023-01-25T01:24:57.773Z,0
2023-01-25T01:25:59.292Z,0
2023-01-25T01:26:59.244Z,0
2023-01-25T01:28:00.492Z,0
2023-01-25T01:29:00.440Z,0
2023-01-25T01:30:01.376Z,0
2023-01-25T01:31:02.312Z,0
2023-01-25T01:32:03.299Z,0
2023-01-25T01:33:03.409Z,0
2023-01-25T01:34:04.341Z,0
2023-01-25T01:35:04.894Z,0
2023-01-25T01:36:05.271Z,0
2023-01-25T01:37:06.185Z,0
2023-01-25T01:38:06.413Z,0
2023-01-25T01:39:07.605Z,0
2023-01-25T01:40:07.627Z,0
2023-01-25T01:41:08.944Z,0
2023-01-25T01:42:09.087Z,0
2023-01-25T01:43:08.982Z,0
2023-01-25T01:44:10.186Z,0
2023-01-25T01:45:10.280Z,0
2023-01-25T01:46:10.567Z,0
2023-01-25T01:47:10.911Z,0
2023-01-25T01:48:11.170Z,0
2023-01-25T01:49:11.136Z,0
2023-01-25T01:50:12.428Z,0
2023-01-25T01:51:12.979Z,0
2023-01-25T01:52:13.991Z,0
2023-01-25T01:53:13.913Z,0
2023-01-25T01:54:15.121Z,0
2023-01-25T01:55:16.202Z,0
2023-01-25T01:56:16.584Z,0
2023-01-25T01:57:16.956Z,0
2023-01-25T01:58:18.196Z,0
2023-01-25T01:59:18.127Z,0
2023-01-25T02:00:19.100Z,0
2023-01-25T02:01:20.350Z,0
2023-01-25T02:02:21.067Z,0
2023-01-25T02:03:21.430Z,0
2023-01-25T02:04:22.631Z,0
2023-01-25T02:05:22.955Z,0
2023-01-25T02:06:22.880Z,0
2023-01-25T02:07:23.364Z,0
2023-01-25T02:08:22.692Z,0
2023-01-25T02:09:23.193Z,0
2023-01-25T02:10:24.442Z,0
2023-01-25T02:11:25.521Z,0
2023-01-25T02:12:25.281Z,0
2023-01-25T02:13:26.483Z,0
2023-01-25T02:14:26.497Z,0
2023-01-25T02:15:27.696Z,0
2023-01-25T02:16:28.363Z,0
2023-01-25T02:17:28.592Z,0
2023-01-25T02:18:29.588Z,0
2023-01-25T02:19:30.086Z,0
2023-01-25T02:20:30.581Z,0
2023-01-25T02:21:30.211Z,0
2023-01-25T02:22:31.799Z,0
2023-01-25T02:23:32.279Z,0
2023-01-25T02:24:32.906Z,0
2023-01-25T02:25:33.440Z,0
2023-01-25T02:26:33.665Z,0
2023-01-25T02:27:34.295Z,0
2023-01-25T02:28:35.221Z,0
2023-01-25T02:29:35.437Z,0
2023-01-25T02:30:35.074Z,0
2023-01-25T02:31:37.026Z,0
2023-01-25T02:32:37.302Z,0
2023-01-25T02:33:37.298Z,0
2023-01-25T02:34:38.502Z,0
2023-01-25T02:35:39.023Z,0
2023-01-25T02:36:38.721Z,0
2023-01-25T02:37:39.400Z,0
2023-01-25T02:38:40.627Z,0
2023-01-25T02:39:40.541Z,0
2023-01-25T02:40:41.795Z,0
2023-01-25T02:41:42.015Z,0
2023-01-25T02:42:43.071Z,0
2023-01-25T02:43:43.634Z,0
2023-01-25T02:44:45.581Z,0
2023-01-25T02:45:43.522Z,0
2023-01-25T02:46:45.004Z,0
2023-01-25T02:47:45.263Z,0
2023-01-25T02:48:46.232Z,0
2023-01-25T02:49:46.056Z,0
2023-01-25T02:50:47.634Z,0
2023-01-25T02:51:47.851Z,0
2023-01-25T02:52:47.725Z,0
2023-01-25T02:53:47.654Z,0
2023-01-25T02:54:48.568Z,0
2023-01-25T02:55:49.844Z,0
2023-01-25T02:56:50.400Z,0
2023-01-25T02:57:50.436Z,0
2023-01-25T02:58:51.967Z,0
2023-01-25T02:59:52.031Z,0
2023-01-25T03:00:52.585Z,0
2023-01-25T03:01:53.206Z,0
2023-01-25T03:02:53.825Z,0
2023-01-25T03:03:54.191Z,0
2023-01-25T03:04:54.800Z,0
2023-01-25T03:05:55.033Z,0
2023-01-25T03:06:54.998Z,0
2023-01-25T03:07:56.018Z,0
2023-01-25T03:08:56.616Z,0
2023-01-25T03:09:56.837Z,0
2023-01-25T03:10:57.793Z,0
2023-01-25T03:11:58.039Z,0
2023-01-25T03:12:58.143Z,0
2023-01-25T03:13:58.084Z,0
2023-01-25T03:14:58.999Z,0
2023-01-25T03:16:00.064Z,0
2023-01-25T03:17:00.084Z,0
2023-01-25T03:18:00.304Z,0
2023-01-25T03:19:01.254Z,0
2023-01-25T03:20:01.639Z,0
2023-01-25T03:21:02.234Z,0
2023-01-25T03:22:02.449Z,0
2023-01-25T03:23:03.462Z,0
2023-01-25T03:24:04.957Z,0
2023-01-25T03:25:05.336Z,0
2023-01-25T03:26:06.260Z,0
2023-01-25T03:27:06.504Z,0
2023-01-25T03:28:06.516Z,0
2023-01-25T03:29:07.908Z,0
2023-01-25T03:30:07.545Z,0
2023-01-25T03:31:08.661Z,0
2023-01-25T03:32:09.291Z,0
2023-01-25T03:33:09.502Z,0
2023-01-25T03:34:10.083Z,0
2023-01-25T03:35:10.821Z,0
2023-01-25T03:36:11.355Z,0
2023-01-25T03:37:11.672Z,0
2023-01-25T03:38:12.453Z,0
2023-01-25T03:39:12.964Z,0
2023-01-25T03:40:13.181Z,0
2023-01-25T03:41:13.459Z,0
2023-01-25T03:42:13.687Z,0
2023-01-25T03:43:14.750Z,0
2023-01-25T03:44:15.656Z,0
2023-01-25T03:45:17.279Z,0
2023-01-25T03:46:16.910Z,0
2023-01-25T03:47:18.217Z,0
2023-01-25T03:48:18.204Z,0
2023-01-25T03:49:18.917Z,0
2023-01-25T03:50:19.551Z,0
2023-01-25T03:51:20.777Z,0
2023-01-25T03:52:21.275Z,0
2023-01-25T03:53:21.016Z,0
2023-01-25T03:54:21.958Z,0
2023-01-25T03:55:22.888Z,0
2023-01-25T03:56:23.425Z,0
2023-01-25T03:57:23.409Z,0
2023-01-25T03:58:23.609Z,0
2023-01-25T03:59:24.303Z,0
2023-01-25T04:00:25.587Z,0
2023-01-25T04:01:25.756Z,0
2023-01-25T04:02:26.795Z,0
2023-01-25T04:03:27.234Z,0
2023-01-25T04:04:27.678Z,0
2023-01-25T04:05:28.188Z,0
2023-01-25T04:06:28.757Z,0
2023-01-25T04:07:28.987Z,0
2023-01-25T04:08:29.243Z,0
2023-01-25T04:09:30.274Z,0
2023-01-25T04:10:31.229Z,0
2023-01-25T04:11:31.499Z,0
2023-01-25T04:12:32.451Z,0
2023-01-25T04:13:32.785Z,0
2023-01-25T04:14:50.704Z,0
2023-01-25T04:15:33.932Z,0
2023-01-25T04:16:34.868Z,0
2023-01-25T04:17:35.508Z,0
2023-01-25T04:18:35.753Z,0
2023-01-25T04:19:37.007Z,0
2023-01-25T04:20:36.935Z,0
2023-01-25T04:21:37.521Z,0
2023-01-25T04:22:38.456Z,0
2023-01-25T04:23:39.785Z,0
2023-01-25T04:24:40.032Z,0
2023-01-25T04:25:39.985Z,0
2023-01-25T04:26:41.221Z,0
2023-01-25T04:27:42.442Z,0
2023-01-25T04:28:42.803Z,0
2023-01-25T04:29:52.813Z,0
2023-01-25T04:30:44.785Z,0
2023-01-25T04:31:46.144Z,0
2023-01-25T04:32:46.954Z,0
2023-01-25T04:33:46.489Z,0
2023-01-25T04:34:46.770Z,0
2023-01-25T04:35:47.759Z,0
2023-01-25T04:36:48.691Z,0
2023-01-25T04:37:49.620Z,0
2023-01-25T04:38:49.818Z,0
2023-01-25T04:39:50.032Z,0
2023-01-25T04:40:50.440Z,0
2023-01-25T04:41:51.680Z,0
2023-01-25T04:42:52.190Z,0
2023-01-25T04:43:52.819Z,0
2023-01-25T04:44:53.168Z,0
2023-01-25T04:45:54.420Z,0
2023-01-25T04:46:55.005Z,0
2023-01-25T04:47:55.358Z,0
2023-01-25T04:48:56.306Z,0
2023-01-25T04:49:57.612Z,0
2023-01-25T04:50:58.742Z,0
2023-01-25T04:51:59.145Z,0
2023-01-25T04:52:59.546Z,0
2023-01-25T04:53:59.839Z,0
2023-01-25T04:54:59.768Z,0
2023-01-25T04:56:01.276Z,0
2023-01-25T04:57:01.806Z,0
2023-01-25T04:58:02.348Z,0
2023-01-25T04:59:02.844Z,0
2023-01-25T05:00:02.503Z,0
2023-01-25T05:01:03.797Z,0
2023-01-25T05:02:04.308Z,0
2023-01-25T05:03:04.524Z,0
2023-01-25T05:04:06.172Z,0
2023-01-25T05:05:06.796Z,0
2023-01-25T05:06:07.452Z,0
2023-01-25T05:07:07.938Z,0
2023-01-25T05:08:08.445Z,0
2023-01-25T05:09:08.942Z,0
2023-01-25T05:10:09.442Z,0
2023-01-25T05:11:09.381Z,0
2023-01-25T05:12:10.891Z,0
2023-01-25T05:13:11.250Z,0
2023-01-25T05:14:11.313Z,0
2023-01-25T05:15:11.820Z,0
2023-01-25T05:16:15.440Z,0
2023-01-25T05:17:12.809Z,0
2023-01-25T05:18:13.314Z,0
2023-01-25T05:19:13.560Z,0
2023-01-25T05:20:13.518Z,0
2023-01-25T05:21:13.456Z,0
2023-01-25T05:22:14.651Z,0
2023-01-25T05:23:14.870Z,0
2023-01-25T05:24:15.529Z,0
2023-01-25T05:25:16.843Z,0
2023-01-25T05:26:16.496Z,0
2023-01-25T05:27:17.277Z,0
2023-01-25T05:28:18.556Z,0
2023-01-25T05:29:18.181Z,0
2023-01-25T05:30:18.887Z,0
2023-01-25T05:31:20.428Z,0
2023-01-25T05:32:20.915Z,0
2023-01-25T05:33:20.855Z,0
2023-01-25T05:34:22.209Z,0
2023-01-25T05:35:23.329Z,0
2023-01-25T05:36:22.562Z,0
2023-01-25T05:37:23.073Z,0
2023-01-25T05:38:23.292Z,0
2023-01-25T05:39:23.491Z,0
2023-01-25T05:40:24.698Z,0
2023-01-25T05:41:24.618Z,0
2023-01-25T05:42:25.564Z,0
2023-01-25T05:43:26.785Z,0
2023-01-25T05:44:26.842Z,0
2023-01-25T05:45:27.325Z,0
2023-01-25T05:46:27.745Z,0
2023-01-25T05:47:27.724Z,0
2023-01-25T05:48:28.674Z,0
2023-01-25T05:49:28.917Z,0
2023-01-25T05:50:29.644Z,0
2023-01-25T05:51:30.128Z,0
2023-01-25T05:52:30.061Z,0
2023-01-25T05:53:30.977Z,0
2023-01-25T05:54:31.847Z,0
2023-01-25T05:55:32.128Z,0
2023-01-25T05:56:33.093Z,0
2023-01-25T05:57:33.078Z,0
2023-01-25T05:58:33.810Z,0
2023-01-25T05:59:34.774Z,0
2023-01-25T06:00:35.999Z,0
2023-01-25T06:01:36.210Z,0
2023-01-25T06:02:37.176Z,0
2023-01-25T06:03:37.809Z,0
2023-01-25T06:04:37.999Z,0
2023-01-25T06:05:39.290Z,0
2023-01-25T06:06:39.511Z,0
2023-01-25T06:07:39.155Z,0
2023-01-25T06:08:40.158Z,0
2023-01-25T06:09:40.493Z,0
2023-01-25T06:10:40.712Z,0
2023-01-25T06:11:41.631Z,0
2023-01-25T06:12:41.908Z,0
2023-01-25T06:13:42.420Z,0
2023-01-25T06:14:42.762Z,0
2023-01-25T06:15:43.976Z,0
2023-01-25T06:16:44.323Z,0
2023-01-25T06:17:44.721Z,0
2023-01-25T06:18:45.918Z,0
2023-01-25T06:19:46.860Z,0
2023-01-25T06:20:47.140Z,0
2023-01-25T06:21:48.111Z,0
2023-01-25T06:22:48.455Z,0
2023-01-25T06:23:51.285Z,0
2023-01-25T06:24:49.947Z,0
2023-01-25T06:25:50.889Z,4
2023-01-25T06:26:51.089Z,4
2023-01-25T06:27:51.602Z,0
2023-01-25T06:28:53.343Z,0
2023-01-25T06:29:52.711Z,4
2023-01-25T06:30:53.951Z,4
2023-01-25T06:31:54.087Z,0
2023-01-25T06:32:54.397Z,4
2023-01-25T06:33:54.075Z,4
2023-01-25T06:34:55.177Z,4
2023-01-25T06:35:56.185Z,4
2023-01-25T06:36:56.100Z,8
2023-01-25T06:37:57.035Z,8
2023-01-25T06:38:57.551Z,8
2023-01-25T06:39:57.470Z,12
2023-01-25T06:40:57.215Z,12
2023-01-25T06:41:58.135Z,12
2023-01-25T06:42:59.372Z,16
2023-01-25T06:43:59.612Z,16
2023-01-25T06:44:59.843Z,16
2023-01-25T06:46:01.079Z,20
2023-01-25T06:47:02.302Z,24
2023-01-25T06:48:02.204Z,24
2023-01-25T06:49:02.848Z,28
2023-01-25T06:50:04.081Z,32
2023-01-25T06:51:04.371Z,32
2023-01-25T06:52:04.528Z,36
2023-01-25T06:53:05.541Z,40
2023-01-25T06:54:06.475Z,44
2023-01-25T06:55:07.029Z,44
2023-01-25T06:56:08.626Z,48
2023-01-25T06:57:08.262Z,52
2023-01-25T06:58:08.570Z,56
2023-01-25T06:59:08.840Z,60
2023-01-25T07:00:09.498Z,64
2023-01-25T07:01:10.022Z,68
2023-01-25T07:02:10.422Z,72
2023-01-25T07:03:10.448Z,76
2023-01-25T07:04:14.479Z,80
2023-01-25T07:05:12.594Z,88
2023-01-25T07:06:12.320Z,92
2023-01-25T07:07:12.944Z,96
2023-01-25T07:08:14.168Z,100
2023-01-25T07:09:14.665Z,104
2023-01-25T07:10:15.096Z,112
2023-01-25T07:11:16.032Z,120
2023-01-25T07:12:16.316Z,124
2023-01-25T07:13:16.848Z,132
2023-01-25T07:14:17.095Z,140
2023-01-25T07:15:17.680Z,148
2023-01-25T07:16:18.026Z,156
2023-01-25T07:17:18.240Z,160
2023-01-25T07:18:27.600Z,164
2023-01-25T07:19:19.817Z,172
2023-01-25T07:20:19.760Z,176
2023-01-25T07:21:20.039Z,184
2023-01-25T07:22:20.731Z,192
2023-01-25T07:23:21.394Z,200
2023-01-25T07:24:22.243Z,204
2023-01-25T07:25:22.686Z,212
2023-01-25T07:26:22.320Z,220
2023-01-25T07:27:23.819Z,228
2023-01-25T07:28:24.346Z,236
2023-01-25T07:29:24.586Z,248
2023-01-25T07:30:24.798Z,256
2023-01-25T07:31:26.236Z,260
2023-01-25T07:32:26.267Z,272
2023-01-25T07:33:26.935Z,276
2023-01-25T07:34:28.158Z,284
2023-01-25T07:35:28.372Z,292
2023-01-25T07:36:29.310Z,296
2023-01-25T07:37:29.823Z,304
2023-01-25T07:38:30.045Z,320
2023-01-25T07:39:30.544Z,336
2023-01-25T07:40:30.799Z,348
2023-01-25T07:41:31.748Z,352
2023-01-25T07:42:31.974Z,356
2023-01-25T07:43:32.348Z,360
2023-01-25T07:44:32.738Z,376
2023-01-25T07:45:33.428Z,384
2023-01-25T07:46:33.448Z,388
2023-01-25T07:47:35.450Z,400
2023-01-25T07:48:34.769Z,412
2023-01-25T07:49:35.191Z,428
2023-01-25T07:50:35.130Z,444
2023-01-25T07:51:35.801Z,464
2023-01-25T07:52:35.719Z,480
2023-01-25T07:53:37.338Z,504
2023-01-25T07:54:37.560Z,528
2023-01-25T07:55:37.615Z,540
2023-01-25T07:56:38.128Z,556
2023-01-25T07:57:38.067Z,572
2023-01-25T07:58:39.018Z,576
2023-01-25T07:59:39.564Z,580
2023-01-25T08:00:39.993Z,584
2023-01-25T08:01:40.703Z,580
2023-01-25T08:02:40.665Z,596
2023-01-25T08:03:40.890Z,612
2023-01-25T08:04:42.312Z,620
2023-01-25T08:05:44.201Z,624
2023-01-25T08:06:42.518Z,636
2023-01-25T08:07:43.003Z,668
2023-01-25T08:08:43.519Z,700
2023-01-25T08:09:44.607Z,704
2023-01-25T08:10:44.837Z,712
2023-01-25T08:11:45.405Z,744
2023-01-25T08:12:45.626Z,752
2023-01-25T08:13:45.850Z,760
2023-01-25T08:14:46.108Z,796
2023-01-25T08:15:46.539Z,812
2023-01-25T08:16:47.849Z,796
2023-01-25T08:17:48.042Z,792
2023-01-25T08:18:48.250Z,808
2023-01-25T08:19:48.747Z,840
2023-01-25T08:20:49.744Z,868
2023-01-25T08:21:50.088Z,876
2023-01-25T08:22:50.390Z,880
2023-01-25T08:23:50.089Z,884
2023-01-25T08:24:50.772Z,896
2023-01-25T08:25:51.832Z,908
2023-01-25T08:26:52.473Z,908
2023-01-25T08:27:53.032Z,896
2023-01-25T08:28:53.341Z,908
2023-01-25T08:29:53.380Z,924
2023-01-25T08:31:07.859Z,936
2023-01-25T08:31:54.762Z,924
2023-01-25T08:32:54.776Z,912
2023-01-25T08:33:56.489Z,932
2023-01-25T08:34:56.538Z,936
2023-01-25T08:35:57.806Z,940
2023-01-25T08:36:58.177Z,952
2023-01-25T08:37:58.141Z,976
2023-01-25T08:38:58.806Z,992
2023-01-25T08:40:00.425Z,1008
2023-01-25T08:41:00.718Z,1024
2023-01-25T08:42:01.528Z,1028
2023-01-25T08:43:02.072Z,1016
2023-01-25T08:44:02.051Z,1020
2023-01-25T08:45:03.350Z,1036
2023-01-25T08:46:03.386Z,1060
2023-01-25T08:47:03.697Z,1076
2023-01-25T08:48:04.212Z,1064
2023-01-25T08:49:04.448Z,1064
2023-01-25T08:50:05.576Z,1068
2023-01-25T08:51:06.436Z,1068
2023-01-25T08:52:07.048Z,1072
2023-01-25T08:53:07.284Z,1084
2023-01-25T08:54:07.543Z,1096
2023-01-25T08:55:08.139Z,1104
2023-01-25T08:56:09.141Z,1120
2023-01-25T08:57:09.653Z,1144
2023-01-25T08:58:09.635Z,1160
2023-01-25T08:59:10.973Z,1168
2023-01-25T09:00:11.855Z,1164
2023-01-25T09:01:11.425Z,1160
2023-01-25T09:02:11.828Z,1160
2023-01-25T09:03:11.939Z,1164
2023-01-25T09:04:13.225Z,1180
2023-01-25T09:05:13.920Z,1196
2023-01-25T09:06:14.329Z,1192
2023-01-25T09:07:14.732Z,1184
2023-01-25T09:08:18.284Z,1176
2023-01-25T09:09:16.383Z,1164
2023-01-25T09:10:17.483Z,1140
2023-01-25T09:11:17.032Z,1128
2023-01-25T09:12:17.894Z,1128
2023-01-25T09:13:19.908Z,1112
2023-01-25T09:14:19.781Z,1104
2023-01-25T09:15:19.662Z,1112
2023-01-25T09:16:20.051Z,1132
2023-01-25T09:17:20.615Z,1148
2023-01-25T09:18:20.580Z,1156
2023-01-25T09:19:21.811Z,1164
2023-01-25T09:20:22.280Z,1180
2023-01-25T09:21:23.554Z,1212
2023-01-25T09:22:24.112Z,1252
2023-01-25T09:23:24.079Z,1276
2023-01-25T09:24:24.626Z,1288
2023-01-25T09:25:25.369Z,1300
2023-01-25T09:26:25.785Z,1320
2023-01-25T09:27:26.260Z,1352
2023-01-25T09:28:26.225Z,1360
2023-01-25T09:29:26.891Z,1336
2023-01-25T09:31:06.984Z,1304
2023-01-25T09:31:36.965Z,1292
2023-01-25T09:32:36.199Z,1288
2023-01-25T09:33:36.670Z,1284
2023-01-25T09:34:37.247Z,1288
2023-01-25T09:35:37.751Z,1304
2023-01-25T09:36:37.698Z,1336
2023-01-25T09:37:38.432Z,1344
2023-01-25T09:38:39.415Z,1328
2023-01-25T09:39:40.035Z,1328
2023-01-25T09:40:40.245Z,1320
2023-01-25T09:41:40.774Z,1312
2023-01-25T09:42:41.409Z,1308
2023-01-25T09:43:41.391Z,1300
2023-01-25T09:44:42.341Z,1292
2023-01-25T09:45:42.602Z,1284
2023-01-25T09:46:43.867Z,1288
2023-01-25T09:47:44.109Z,1304
2023-01-25T09:48:44.830Z,1312
2023-01-25T09:49:44.934Z,1296
2023-01-25T09:50:45.623Z,1284
2023-01-25T09:51:45.891Z,1296
2023-01-25T09:52:46.686Z,1328
2023-01-25T09:53:47.925Z,1340
2023-01-25T09:54:58.233Z,1320
2023-01-25T09:55:48.790Z,1312
2023-01-25T09:56:49.232Z,1320
2023-01-25T09:57:49.845Z,1324
2023-01-25T09:58:50.989Z,1316
2023-01-25T09:59:50.953Z,1312
2023-01-25T10:00:51.947Z,1324
2023-01-25T10:01:53.183Z,1332
2023-01-25T10:02:53.897Z,1352
2023-01-25T10:03:54.220Z,1360
2023-01-25T10:04:55.138Z,1372
2023-01-25T10:05:55.696Z,1372
2023-01-25T10:07:07.889Z,1368
2023-01-25T10:07:56.176Z,1368
2023-01-25T10:08:57.146Z,1372
2023-01-25T10:09:58.462Z,1360
2023-01-25T10:10:58.423Z,1348
2023-01-25T10:11:59.307Z,1344
2023-01-25T10:12:59.239Z,1356
2023-01-25T10:14:00.451Z,1356
2023-01-25T10:15:00.444Z,1344
2023-01-25T10:16:01.917Z,1332
2023-01-25T10:17:01.814Z,1340
2023-01-25T10:18:02.461Z,1324
2023-01-25T10:19:02.690Z,1304
2023-01-25T10:20:03.182Z,1312
2023-01-25T10:21:03.798Z,1332
2023-01-25T10:22:03.811Z,1336
2023-01-25T10:23:04.085Z,1336
2023-01-25T10:24:04.187Z,1348
2023-01-25T10:25:04.488Z,1380
2023-01-25T10:26:05.717Z,1408
2023-01-25T10:27:06.241Z,1428
2023-01-25T10:28:07.822Z,1456
2023-01-25T10:29:08.074Z,1492
2023-01-25T10:30:08.358Z,1496
2023-01-25T10:31:09.067Z,1472
2023-01-25T10:32:09.256Z,1448
2023-01-25T10:33:10.285Z,1444
2023-01-25T10:34:10.829Z,1460
2023-01-25T10:35:12.655Z,1488
2023-01-25T10:36:11.861Z,1524
2023-01-25T10:37:12.412Z,1556
2023-01-25T10:38:13.099Z,1568
2023-01-25T10:39:13.384Z,1548
2023-01-25T10:40:13.875Z,1532
2023-01-25T10:41:14.805Z,1520
2023-01-25T10:42:14.475Z,1512
2023-01-25T10:43:15.700Z,1524
2023-01-25T10:44:15.902Z,1548
2023-01-25T10:45:16.793Z,1568
2023-01-25T10:46:16.938Z,1568
2023-01-25T10:47:16.869Z,1564
2023-01-25T10:48:17.804Z,1560
2023-01-25T10:49:18.023Z,1552
2023-01-25T10:50:19.016Z,1532
2023-01-25T10:51:19.007Z,1528
2023-01-25T10:52:19.386Z,1532
2023-01-25T10:53:20.672Z,1544
2023-01-25T10:54:21.607Z,1556
2023-01-25T10:55:23.315Z,1556
2023-01-25T10:56:22.988Z,1552
2023-01-25T10:57:24.379Z,1560
2023-01-25T10:58:25.609Z,1580
2023-01-25T10:59:26.200Z,1608
2023-01-25T11:00:28.145Z,1616
2023-01-25T11:01:28.060Z,1640
2023-01-25T11:02:28.411Z,1660
2023-01-25T11:03:29.094Z,1656
2023-01-25T11:04:29.478Z,1616
2023-01-25T11:05:30.248Z,1592
2023-01-25T11:06:31.201Z,1596
2023-01-25T11:07:32.275Z,1600
2023-01-25T11:08:33.797Z,1600
2023-01-25T11:09:33.488Z,1576
2023-01-25T11:10:34.759Z,1568
2023-01-25T11:11:34.741Z,1584
2023-01-25T11:12:35.434Z,1604
2023-01-25T11:13:35.810Z,1596
2023-01-25T11:14:35.844Z,1600
2023-01-25T11:15:37.158Z,1620
2023-01-25T11:16:37.287Z,1640
2023-01-25T11:17:37.970Z,1632
2023-01-25T11:18:38.490Z,1616
2023-01-25T11:19:39.306Z,1568
2023-01-25T11:20:39.513Z,1496
2023-01-25T11:21:39.862Z,1464
2023-01-25T11:22:39.737Z,1464
2023-01-25T11:23:41.064Z,1464
2023-01-25T11:24:41.207Z,1448
2023-01-25T11:25:40.645Z,1428
2023-01-25T11:26:41.611Z,1416
2023-01-25T11:27:42.641Z,1424
2023-01-25T11:28:42.656Z,1412
2023-01-25T11:29:43.325Z,1412
2023-01-25T11:30:44.530Z,1408
2023-01-25T11:31:45.733Z,1408
2023-01-25T11:32:45.344Z,1424
2023-01-25T11:33:45.485Z,1436
2023-01-25T11:34:45.709Z,1412
2023-01-25T11:35:46.017Z,1376
2023-01-25T11:36:46.558Z,1360
2023-01-25T11:37:46.893Z,1348
2023-01-25T11:38:46.916Z,1328
2023-01-25T11:39:47.870Z,1308
2023-01-25T11:40:48.833Z,1304
2023-01-25T11:41:48.899Z,1288
2023-01-25T11:42:50.112Z,1264
2023-01-25T11:43:50.331Z,1248
2023-01-25T11:44:50.564Z,1252
2023-01-25T11:45:50.842Z,1256
2023-01-25T11:46:52.302Z,1240
2023-01-25T11:47:52.016Z,1236
2023-01-25T11:48:52.247Z,1264
2023-01-25T11:49:52.300Z,1296
2023-01-25T11:50:52.623Z,1304
2023-01-25T11:51:56.927Z,1284
2023-01-25T11:52:53.512Z,1244
2023-01-25T11:53:54.085Z,1212
2023-01-25T11:54:54.575Z,1196
2023-01-25T11:55:54.561Z,1208
2023-01-25T11:56:55.827Z,1228
2023-01-25T11:57:56.262Z,1228
2023-01-25T11:58:56.469Z,1212
2023-01-25T11:59:57.571Z,1192
2023-01-25T12:00:57.351Z,1168
2023-01-25T12:01:58.623Z,1156
2023-01-25T12:02:59.881Z,1164
2023-01-25T12:04:00.271Z,1184
2023-01-25T12:05:04.188Z,1176
2023-01-25T12:06:01.497Z,1168
2023-01-25T12:07:02.030Z,1180
2023-01-25T12:08:02.134Z,1176
2023-01-25T12:09:02.830Z,1152
2023-01-25T12:10:02.761Z,1136
2023-01-25T12:11:04.397Z,1120
2023-01-25T12:12:04.618Z,1100
2023-01-25T12:13:05.844Z,1084
2023-01-25T12:14:05.552Z,1084
2023-01-25T12:15:07.491Z,1100
2023-01-25T12:16:06.780Z,1108
2023-01-25T12:17:07.369Z,1100
2023-01-25T12:18:07.795Z,1104
2023-01-25T12:19:08.164Z,1100
2023-01-25T12:20:09.591Z,1096
2023-01-25T12:21:20.052Z,1104
2023-01-25T12:22:10.514Z,1120
2023-01-25T12:23:11.719Z,1132
2023-01-25T12:24:12.274Z,1120
2023-01-25T12:25:12.559Z,1104
2023-01-25T12:26:13.468Z,1104
2023-01-25T12:27:14.018Z,1100
2023-01-25T12:28:15.052Z,1100
2023-01-25T12:29:16.053Z,1104
2023-01-25T12:30:18.061Z,1116
2023-01-25T12:31:17.566Z,1108
2023-01-25T12:32:18.026Z,1092
2023-01-25T12:33:25.802Z,1104
2023-01-25T12:34:19.016Z,1120
2023-01-25T12:35:19.228Z,1112
2023-01-25T12:36:19.161Z,1096
2023-01-25T12:37:20.382Z,1092
2023-01-25T12:38:21.190Z,1088
2023-01-25T12:39:24.179Z,1100
2023-01-25T12:40:22.876Z,1116
2023-01-25T12:41:23.370Z,1084
2023-01-25T12:42:23.586Z,1060
2023-01-25T12:43:24.076Z,1068
2023-01-25T12:44:24.337Z,1060
2023-01-25T12:45:24.542Z,1044
2023-01-25T12:46:25.227Z,1036
2023-01-25T12:47:26.343Z,1016
2023-01-25T12:48:26.381Z,1024
2023-01-25T12:49:27.018Z,1028
2023-01-25T12:50:27.285Z,1004
2023-01-25T12:51:28.215Z,992
2023-01-25T12:52:29.157Z,992
2023-01-25T12:53:29.678Z,984
2023-01-25T12:54:30.278Z,980
2023-01-25T12:55:30.765Z,972
2023-01-25T12:56:31.276Z,968
2023-01-25T12:57:31.952Z,964
2023-01-25T12:58:47.639Z,928
2023-01-25T12:59:33.336Z,916
2023-01-25T13:00:37.849Z,924
2023-01-25T13:01:35.728Z,928
2023-01-25T13:02:36.372Z,912
2023-01-25T13:03:36.614Z,900
2023-01-25T13:04:37.853Z,880
2023-01-25T13:05:37.521Z,864
2023-01-25T13:06:38.467Z,868
2023-01-25T13:07:38.960Z,864
2023-01-25T13:08:44.087Z,864
2023-01-25T13:09:44.408Z,880
2023-01-25T13:10:44.606Z,888
2023-01-25T13:11:45.594Z,896
2023-01-25T13:12:46.524Z,892
2023-01-25T13:13:46.869Z,872
2023-01-25T13:14:47.385Z,864
2023-01-25T13:15:47.319Z,860
2023-01-25T13:16:48.090Z,848
2023-01-25T13:17:48.626Z,840
2023-01-25T13:18:48.693Z,840
2023-01-25T13:19:48.887Z,844
2023-01-25T13:20:49.539Z,852
2023-01-25T13:21:50.611Z,856
2023-01-25T13:22:52.826Z,860
2023-01-25T13:23:51.552Z,852
2023-01-25T13:24:51.619Z,832
2023-01-25T13:25:52.113Z,804
2023-01-25T13:26:52.157Z,788
2023-01-25T13:27:52.357Z,776
2023-01-25T13:28:53.363Z,768
2023-01-25T13:29:53.755Z,756
2023-01-25T13:30:54.419Z,744
2023-01-25T13:32:05.292Z,740
2023-01-25T13:32:54.695Z,736
2023-01-25T13:33:55.689Z,724
2023-01-25T13:34:56.327Z,716
2023-01-25T13:35:56.532Z,700
2023-01-25T13:36:57.482Z,692
2023-01-25T13:37:58.440Z,688
2023-01-25T13:38:59.043Z,688
2023-01-25T13:40:05.894Z,684
2023-01-25T13:40:59.933Z,684
2023-01-25T13:42:00.591Z,688
2023-01-25T13:43:01.810Z,680
2023-01-25T13:44:03.042Z,668
2023-01-25T13:45:03.582Z,660
2023-01-25T13:46:04.230Z,648
2023-01-25T13:47:04.482Z,640
2023-01-25T13:48:04.733Z,620
2023-01-25T13:49:06.039Z,612
2023-01-25T13:50:06.590Z,612
2023-01-25T13:51:06.782Z,608
2023-01-25T13:52:07.218Z,600
2023-01-25T13:53:07.600Z,588
2023-01-25T13:54:08.770Z,584
2023-01-25T13:55:09.054Z,576
2023-01-25T13:56:10.588Z,568
2023-01-25T13:57:12.262Z,556
2023-01-25T13:58:11.373Z,544
2023-01-25T13:59:11.502Z,540
2023-01-25T14:00:23.217Z,528
2023-01-25T14:01:12.979Z,528
2023-01-25T14:02:12.681Z,524
2023-01-25T14:03:13.289Z,520
2023-01-25T14:04:13.590Z,512
2023-01-25T14:05:19.655Z,508
2023-01-25T14:06:14.592Z,508
2023-01-25T14:07:15.802Z,500
2023-01-25T14:08:15.999Z,492
2023-01-25T14:09:22.685Z,484
2023-01-25T14:10:18.708Z,480
2023-01-25T14:11:18.756Z,480
2023-01-25T14:12:19.967Z,480
2023-01-25T14:13:20.182Z,476